createdAt,value
2023-02-21T00:02:44.554Z,10.30
2023-02-21T00:05:30.674Z,10.30
2023-02-21T00:08:16.690Z,10.30
2023-02-21T00:11:02.666Z,10.20
2023-02-21T00:13:48.775Z,10.30
2023-02-21T00:16:37.693Z,10.30
2023-02-21T00:19:23.902Z,10.30
2023-02-21T00:22:10.102Z,10.30
2023-02-21T00:24:56.121Z,10.30
2023-02-21T00:27:44.301Z,10.30
2023-02-21T00:30:30.671Z,10.20
2023-02-21T00:33:17.202Z,10.30
2023-02-21T00:36:02.851Z,10.30
2023-02-21T00:38:49.274Z,10.30
2023-02-21T00:41:35.028Z,10.30
2023-02-21T00:44:20.664Z,10.30
2023-02-21T00:47:06.430Z,10.30
2023-02-21T00:49:52.239Z,10.30
2023-02-21T00:52:37.675Z,10.30
2023-02-21T00:55:24.102Z,10.30
2023-02-21T00:58:10.004Z,10.40
2023-02-21T01:00:56.085Z,10.30
2023-02-21T01:03:43.297Z,10.40
2023-02-21T01:06:31.117Z,10.30
2023-02-21T01:09:16.928Z,10.30
2023-02-21T01:12:02.850Z,10.30
2023-02-21T01:14:48.608Z,10.40
2023-02-21T01:17:34.585Z,10.40
2023-02-21T01:20:20.354Z,10.30
2023-02-21T01:23:06.225Z,10.30
2023-02-21T01:25:52.020Z,10.30
2023-02-21T01:28:37.754Z,10.30
2023-02-21T01:31:23.672Z,10.30
2023-02-21T01:34:09.325Z,10.30
2023-02-21T01:36:55.304Z,10.30
2023-02-21T01:39:41.145Z,10.30
2023-02-21T01:42:28.781Z,10.30
2023-02-21T01:45:39.943Z,10.30
2023-02-21T01:48:37.321Z,10.30
2023-02-21T01:51:25.327Z,10.30
2023-02-21T01:54:12.447Z,10.20
2023-02-21T01:56:59.309Z,10.30
2023-02-21T01:59:45.790Z,10.20
2023-02-21T02:03:06.466Z,10.30
2023-02-21T02:05:53.700Z,10.20
2023-02-21T02:08:45.925Z,10.30
2023-02-21T02:11:49.130Z,10.30
2023-02-21T02:14:54.746Z,10.20
2023-02-21T02:18:07.136Z,10.20
2023-02-21T02:21:01.549Z,10.20
2023-02-21T02:23:46.576Z,10.20
2023-02-21T02:26:35.583Z,10.20
2023-02-21T02:29:53.067Z,10.20
2023-02-21T02:32:32.073Z,10.20
2023-02-21T02:35:15.709Z,10.20
2023-02-21T02:37:57.296Z,10.30
2023-02-21T02:40:38.589Z,10.30
2023-02-21T02:43:25.581Z,10.20
2023-02-21T02:46:22.299Z,10.30
2023-02-21T02:49:03.906Z,10.30
2023-02-21T02:51:34.191Z,10.20
2023-02-21T02:54:04.451Z,10.30
2023-02-21T02:56:33.782Z,10.20
2023-02-21T02:59:29.956Z,10.20
2023-02-21T03:02:46.429Z,10.30
2023-02-21T03:05:29.312Z,10.30
2023-02-21T03:08:05.858Z,10.20
2023-02-21T03:10:52.948Z,10.30
2023-02-21T03:13:42.190Z,10.30
2023-02-21T03:16:38.277Z,10.30
2023-02-21T03:19:23.004Z,10.30
2023-02-21T03:21:56.178Z,10.30
2023-02-21T03:24:26.179Z,10.30
2023-02-21T03:26:59.643Z,10.30
2023-02-21T03:29:48.988Z,10.30
2023-02-21T03:32:27.442Z,10.30
2023-02-21T03:34:56.188Z,10.30
2023-02-21T03:37:40.913Z,10.40
2023-02-21T03:40:20.696Z,10.40
2023-02-21T03:42:52.002Z,10.40
2023-02-21T03:45:20.440Z,10.40
2023-02-21T03:48:01.985Z,10.40
2023-02-21T03:50:30.037Z,10.40
2023-02-21T03:52:57.545Z,10.40
2023-02-21T03:55:25.185Z,10.40
2023-02-21T03:57:52.669Z,10.40
2023-02-21T04:00:20.133Z,10.40
2023-02-21T04:02:51.575Z,10.40
2023-02-21T04:05:33.888Z,10.40
2023-02-21T04:08:01.247Z,10.40
2023-02-21T04:10:28.693Z,10.40
2023-02-21T04:12:56.839Z,10.40
2023-02-21T04:15:24.469Z,10.40
2023-02-21T04:17:52.289Z,10.40
2023-02-21T04:20:20.996Z,10.30
2023-02-21T04:23:03.237Z,10.40
2023-02-21T04:25:32.101Z,10.30
2023-02-21T04:28:04.670Z,10.30
2023-02-21T04:30:32.275Z,10.40
2023-02-21T04:32:59.815Z,10.40
2023-02-21T04:35:27.606Z,10.30
2023-02-21T04:37:57.496Z,10.30
2023-02-21T04:40:27.277Z,10.30
2023-02-21T04:42:54.705Z,10.30
2023-02-21T04:45:21.979Z,10.30
2023-02-21T04:48:25.160Z,10.40
2023-02-21T05:00:41.704Z,10.30
2023-02-21T05:04:12.823Z,10.30
2023-02-21T05:07:18.436Z,10.30
2023-02-21T05:10:11.376Z,10.30
2023-02-21T05:12:44.435Z,10.30
2023-02-21T05:15:13.806Z,10.30
2023-02-21T05:17:41.660Z,10.30
2023-02-21T05:20:24.565Z,10.40
2023-02-21T05:22:53.274Z,10.40
2023-02-21T05:25:25.444Z,10.40
2023-02-21T05:27:57.822Z,10.40
2023-02-21T05:30:25.815Z,10.40
2023-02-21T05:33:05.798Z,10.40
2023-02-21T05:35:52.024Z,10.40
2023-02-21T05:38:28.729Z,10.40
2023-02-21T05:41:02.154Z,10.40
2023-02-21T05:43:35.644Z,10.40
2023-02-21T05:46:06.407Z,10.40
2023-02-21T05:48:38.957Z,10.40
2023-02-21T05:51:06.367Z,10.40
2023-02-21T05:53:33.726Z,10.40
2023-02-21T05:56:01.190Z,10.40
2023-02-21T05:58:28.652Z,10.40
2023-02-21T06:00:55.950Z,10.40
2023-02-21T06:03:40.503Z,10.40
2023-02-21T06:06:43.626Z,10.40
2023-02-21T06:09:30.983Z,10.40
2023-02-21T06:11:58.619Z,10.40
2023-02-21T06:14:26.869Z,10.30
2023-02-21T06:17:07.207Z,10.30
2023-02-21T06:19:43.651Z,10.30
2023-02-21T06:25:42.997Z,10.30
2023-02-21T06:28:17.895Z,10.30
2023-02-21T06:31:04.601Z,10.20
2023-02-21T06:33:31.889Z,10.20
2023-02-21T06:41:28.844Z,10.20
2023-02-21T07:08:39.672Z,10.10
2023-02-21T07:12:36.503Z,10.10
2023-02-21T07:23:10.887Z,10.10
2023-02-21T07:25:38.176Z,10.10
2023-02-21T07:28:05.567Z,10.10
2023-02-21T07:30:33.111Z,10.10
2023-02-21T07:33:00.562Z,10.10
2023-02-21T07:35:27.905Z,10.10
2023-02-21T07:37:55.174Z,10.10
2023-02-21T07:40:22.598Z,10.10
2023-02-21T07:42:49.830Z,10.10
2023-02-21T07:45:17.717Z,10.10
2023-02-21T07:47:47.883Z,10.10
2023-02-21T07:50:16.507Z,10.10
2023-02-21T07:52:45.181Z,10.10
2023-02-21T07:55:13.415Z,10.20
2023-02-21T07:57:40.695Z,10.20
2023-02-21T08:00:08.729Z,10.20
2023-02-21T08:02:41.676Z,10.20
2023-02-21T08:05:09.833Z,10.20
2023-02-21T08:07:37.188Z,10.20
2023-02-21T08:10:04.935Z,10.20
2023-02-21T08:12:32.158Z,10.20
2023-02-21T08:14:59.413Z,10.20
2023-02-21T08:17:26.993Z,10.30
2023-02-21T08:19:54.260Z,10.30
2023-02-21T08:22:21.523Z,10.30
2023-02-21T08:24:52.123Z,10.30
2023-02-21T08:27:19.599Z,10.30
2023-02-21T08:29:50.675Z,10.30
2023-02-21T08:32:18.838Z,10.30
2023-02-21T08:34:47.690Z,10.30
2023-02-21T08:37:20.085Z,10.30
2023-02-21T08:39:48.936Z,10.30
2023-02-21T08:42:16.590Z,10.20
2023-02-21T08:44:45.198Z,10.20
2023-02-21T08:47:14.166Z,10.20
2023-02-21T08:49:45.049Z,10.20
2023-02-21T08:52:12.305Z,10.20
2023-02-21T08:54:40.465Z,10.20
2023-02-21T08:57:07.758Z,10.30
2023-02-21T08:59:35.314Z,10.20
2023-02-21T09:02:02.665Z,10.20
2023-02-21T09:04:29.967Z,10.20
2023-02-21T09:06:57.282Z,10.20
2023-02-21T09:09:24.540Z,10.20
2023-02-21T09:11:51.743Z,10.20
2023-02-21T09:14:19.128Z,10.20
2023-02-21T09:16:47.936Z,10.20
2023-02-21T09:19:15.844Z,10.20
2023-02-21T09:21:48.013Z,10.20
2023-02-21T09:24:15.414Z,10.20
2023-02-21T09:26:42.728Z,10.20
2023-02-21T09:29:12.235Z,10.30
2023-02-21T09:31:39.583Z,10.30
2023-02-21T09:34:06.823Z,10.30
2023-02-21T09:36:36.341Z,10.30
2023-02-21T09:39:06.673Z,10.30
2023-02-21T09:41:35.679Z,10.30
2023-02-21T09:44:05.932Z,10.30
2023-02-21T09:46:46.294Z,10.30
2023-02-21T09:49:21.709Z,10.40
2023-02-21T09:51:50.159Z,10.40
2023-02-21T09:54:30.671Z,10.50
2023-02-21T09:57:01.371Z,10.50
2023-02-21T09:59:29.138Z,10.50
2023-02-21T10:02:14.649Z,10.60
2023-02-21T10:04:59.840Z,10.60
2023-02-21T10:08:00.618Z,10.60
2023-02-21T10:10:33.367Z,10.60
2023-02-21T10:13:03.669Z,10.60
2023-02-21T10:15:48.889Z,10.60
2023-02-21T10:18:42.574Z,10.60
2023-02-21T10:21:17.968Z,10.70
2023-02-21T10:23:47.830Z,10.70
2023-02-21T10:26:28.990Z,10.70
2023-02-21T10:28:57.180Z,10.70
2023-02-21T10:31:37.849Z,10.80
2023-02-21T10:34:07.788Z,10.80
2023-02-21T10:36:35.634Z,10.80
2023-02-21T10:39:11.706Z,10.80
2023-02-21T10:41:41.294Z,10.90
2023-02-21T10:44:25.578Z,10.90
2023-02-21T10:47:13.690Z,10.90
2023-02-21T10:49:56.290Z,10.90
2023-02-21T10:52:23.554Z,10.90
2023-02-21T10:55:10.609Z,10.90
2023-02-21T10:57:46.124Z,10.90
2023-02-21T11:00:34.694Z,11.00
2023-02-21T11:03:16.030Z,11.00
2023-02-21T11:05:50.471Z,11.10
2023-02-21T11:08:36.617Z,11.10
2023-02-21T11:11:04.104Z,11.10
2023-02-21T11:13:33.334Z,11.00
2023-02-21T11:16:11.681Z,11.10
2023-02-21T11:18:39.355Z,11.00
2023-02-21T11:21:19.364Z,11.10
2023-02-21T11:23:58.994Z,11.10
2023-02-21T11:26:27.865Z,11.20
2023-02-21T11:28:55.167Z,11.30
2023-02-21T11:31:33.871Z,11.30
2023-02-21T11:34:09.942Z,11.40
2023-02-21T11:36:43.688Z,11.40
2023-02-21T11:39:20.010Z,11.40
2023-02-21T11:41:54.650Z,11.50
2023-02-21T11:44:49.730Z,11.60
2023-02-21T11:47:34.585Z,11.70
2023-02-21T11:50:11.871Z,11.80
2023-02-21T11:52:44.148Z,11.80
2023-02-21T11:55:17.654Z,11.80
2023-02-21T11:58:01.148Z,11.90
2023-02-21T12:00:39.884Z,11.90
2023-02-21T12:03:28.962Z,12.00
2023-02-21T12:06:18.301Z,12.00
2023-02-21T12:09:27.487Z,12.10
2023-02-21T12:12:39.201Z,12.20
2023-02-21T12:15:18.493Z,12.20
2023-02-21T12:17:54.307Z,12.30
2023-02-21T12:20:26.087Z,12.30
2023-02-21T12:23:05.179Z,12.40
2023-02-21T12:26:08.935Z,12.40
2023-02-21T12:29:10.355Z,12.50
2023-02-21T12:32:05.089Z,12.60
2023-02-21T12:34:51.364Z,12.70
2023-02-21T12:37:39.940Z,12.80
2023-02-21T12:40:16.158Z,12.90
2023-02-21T12:43:05.304Z,13.00
2023-02-21T12:46:21.234Z,13.00
2023-02-21T12:49:29.691Z,13.00
2023-02-21T12:52:18.784Z,13.10
2023-02-21T12:55:13.625Z,13.20
2023-02-21T12:58:13.108Z,13.30
2023-02-21T13:00:54.007Z,13.20
2023-02-21T13:03:58.228Z,13.30
2023-02-21T13:06:36.520Z,13.40
2023-02-21T13:09:33.661Z,13.40
2023-02-21T13:12:01.307Z,13.50
2023-02-21T13:14:35.891Z,13.60
2023-02-21T13:17:03.670Z,13.60
2023-02-21T13:20:06.640Z,13.70
2023-02-21T13:23:30.411Z,13.70
2023-02-21T13:26:06.521Z,13.70
2023-02-21T13:28:38.683Z,13.70
2023-02-21T13:31:18.452Z,13.70
2023-02-21T13:33:52.653Z,13.70
2023-02-21T13:36:24.558Z,13.70
2023-02-21T13:39:10.060Z,13.80
2023-02-21T13:41:42.806Z,13.80
2023-02-21T13:44:18.999Z,13.80
2023-02-21T13:46:46.473Z,13.90
2023-02-21T13:49:38.772Z,13.80
2023-02-21T13:52:24.326Z,13.90
2023-02-21T13:55:15.890Z,13.90
2023-02-21T13:58:11.317Z,14.00
2023-02-21T14:00:38.586Z,14.10
2023-02-21T14:03:09.905Z,14.20
2023-02-21T14:05:52.865Z,14.30
2023-02-21T14:08:46.277Z,14.30
2023-02-21T14:11:34.393Z,14.30
2023-02-21T14:14:29.843Z,14.30
2023-02-21T14:17:09.097Z,14.30
2023-02-21T14:19:48.344Z,14.40
2023-02-21T14:22:25.498Z,14.40
2023-02-21T14:25:17.892Z,14.40
2023-02-21T14:27:45.914Z,14.40
2023-02-21T14:30:13.243Z,14.30
2023-02-21T14:32:52.764Z,14.40
2023-02-21T14:35:20.114Z,14.40
2023-02-21T14:38:03.256Z,14.40
2023-02-21T14:40:42.154Z,14.40
2023-02-21T14:43:39.307Z,14.30
2023-02-21T14:46:31.427Z,14.30
2023-02-21T14:49:44.352Z,14.30
2023-02-21T14:52:24.665Z,14.20
2023-02-21T14:55:13.922Z,14.20
2023-02-21T14:57:59.345Z,14.20
2023-02-21T15:00:47.809Z,14.10
2023-02-21T15:03:25.335Z,14.10
2023-02-21T15:06:03.792Z,14.10
2023-02-21T15:08:44.050Z,14.00
2023-02-21T15:11:37.439Z,14.00
2023-02-21T15:14:23.021Z,13.90
2023-02-21T15:16:59.456Z,13.80
2023-02-21T15:19:35.226Z,13.80
2023-02-21T15:22:17.655Z,13.80
2023-02-21T15:25:03.442Z,13.70
2023-02-21T15:27:30.741Z,13.70
2023-02-21T15:30:06.127Z,13.60
2023-02-21T15:32:35.556Z,13.60
2023-02-21T15:35:11.634Z,13.50
2023-02-21T15:37:41.002Z,13.30
2023-02-21T15:40:19.035Z,13.30
2023-02-21T15:42:49.284Z,13.30
2023-02-21T15:45:19.237Z,13.20
2023-02-21T15:47:47.482Z,13.20
2023-02-21T15:50:24.046Z,13.10
2023-02-21T15:52:53.409Z,13.10
2023-02-21T15:55:20.997Z,13.10
2023-02-21T15:58:04.122Z,13.10
2023-02-21T16:00:36.303Z,13.00
2023-02-21T16:03:31.720Z,13.00
2023-02-21T16:06:28.204Z,12.90
2023-02-21T16:09:01.924Z,12.80
2023-02-21T16:11:49.310Z,12.70
2023-02-21T16:14:25.321Z,12.60
2023-02-21T16:17:20.225Z,12.60
2023-02-21T16:19:56.000Z,12.50
2023-02-21T16:22:54.058Z,12.50
2023-02-21T16:25:25.375Z,12.40
2023-02-21T16:27:56.008Z,12.30
2023-02-21T16:30:31.719Z,12.20
2023-02-21T16:33:02.386Z,12.10
2023-02-21T16:35:29.991Z,12.10
2023-02-21T16:37:59.635Z,12.00
2023-02-21T16:40:33.538Z,11.90
2023-02-21T16:43:02.253Z,11.80
2023-02-21T16:45:30.807Z,11.70
2023-02-21T16:48:04.204Z,11.70
2023-02-21T16:50:35.000Z,11.60
2023-02-21T16:53:02.508Z,11.50
2023-02-21T16:55:30.344Z,11.40
2023-02-21T16:58:02.070Z,11.40
2023-02-21T17:00:31.832Z,11.30
2023-02-21T17:02:59.312Z,11.20
2023-02-21T17:05:26.981Z,11.20
2023-02-21T17:07:55.928Z,11.10
2023-02-21T17:10:23.696Z,11.00
2023-02-21T17:12:51.088Z,11.00
2023-02-21T17:15:18.561Z,10.90
2023-02-21T17:17:52.617Z,10.90
2023-02-21T17:20:21.822Z,10.80
2023-02-21T17:22:49.380Z,10.80
2023-02-21T17:25:17.252Z,10.80
2023-02-21T17:27:45.258Z,10.70
2023-02-21T17:30:13.609Z,10.60
2023-02-21T17:32:41.124Z,10.60
2023-02-21T17:35:08.939Z,10.50
2023-02-21T17:37:36.332Z,10.50
2023-02-21T17:40:04.336Z,10.40
2023-02-21T17:42:31.666Z,10.40
2023-02-21T17:45:00.156Z,10.40
2023-02-21T17:47:27.851Z,10.40
2023-02-21T17:49:55.694Z,10.30
2023-02-21T17:52:23.158Z,10.30
2023-02-21T17:54:50.521Z,10.20
2023-02-21T17:57:17.846Z,10.20
2023-02-21T17:59:48.066Z,10.20
2023-02-21T18:02:16.084Z,10.20
2023-02-21T18:04:43.671Z,10.10
2023-02-21T18:07:11.995Z,10.10
2023-02-21T18:09:39.365Z,10.10
2023-02-21T18:12:07.033Z,10.10
2023-02-21T18:14:35.289Z,10.00
2023-02-21T18:17:02.795Z,10.00
2023-02-21T18:19:30.136Z,10.00
2023-02-21T18:21:57.463Z,9.90
2023-02-21T18:24:25.495Z,9.90
2023-02-21T18:26:52.937Z,9.80
2023-02-21T18:29:20.214Z,9.80
2023-02-21T18:31:54.698Z,9.80
2023-02-21T18:34:22.397Z,9.70
2023-02-21T18:36:51.011Z,9.70
2023-02-21T18:39:19.520Z,9.70
2023-02-21T18:41:47.079Z,9.60
2023-02-21T18:44:14.594Z,9.60
2023-02-21T18:46:49.972Z,9.60
2023-02-21T18:49:17.399Z,9.60
2023-02-21T18:51:45.012Z,9.60
2023-02-21T18:54:12.616Z,9.60
2023-02-21T18:56:49.488Z,9.50
2023-02-21T18:59:18.825Z,9.50
2023-02-21T19:01:50.999Z,9.50
2023-02-21T19:04:19.100Z,9.40
2023-02-21T19:06:46.882Z,9.40
2023-02-21T19:09:14.428Z,9.40
2023-02-21T19:11:41.854Z,9.30
2023-02-21T19:14:09.826Z,9.20
2023-02-21T19:16:37.236Z,9.30
2023-02-21T19:19:04.909Z,9.30
2023-02-21T19:21:32.482Z,9.30
2023-02-21T19:24:03.057Z,9.20
2023-02-21T19:26:31.238Z,9.20
2023-02-21T19:28:59.049Z,9.20
2023-02-21T19:31:26.423Z,9.20
2023-02-21T19:33:53.952Z,9.10
2023-02-21T19:36:22.316Z,9.10
2023-02-21T19:38:49.666Z,9.10
2023-02-21T19:41:18.176Z,9.10
2023-02-21T19:43:46.092Z,9.10
2023-02-21T19:46:22.064Z,9.10
2023-02-21T19:48:49.906Z,9.10
2023-02-21T19:51:19.102Z,9.00
2023-02-21T19:53:46.349Z,9.00
2023-02-21T19:56:14.560Z,9.00
2023-02-21T19:58:42.729Z,9.00
2023-02-21T20:01:11.435Z,8.90
2023-02-21T20:03:40.863Z,8.90
2023-02-21T20:06:08.288Z,8.90
2023-02-21T20:08:35.480Z,8.80
2023-02-21T20:11:03.098Z,8.80
2023-02-21T20:13:30.379Z,8.80
2023-02-21T20:15:57.904Z,8.80
2023-02-21T20:18:25.376Z,8.80
2023-02-21T20:20:52.687Z,8.80
2023-02-21T20:23:19.957Z,8.80
2023-02-21T20:25:47.253Z,8.80
2023-02-21T20:28:14.618Z,8.80
2023-02-21T20:30:42.008Z,8.80
2023-02-21T20:33:09.706Z,8.80
2023-02-21T20:35:37.196Z,8.90
2023-02-21T20:38:05.791Z,8.80
2023-02-21T20:40:34.675Z,8.80
2023-02-21T20:43:02.318Z,8.90
2023-02-21T20:45:29.566Z,8.90
2023-02-21T20:47:56.834Z,8.90
2023-02-21T20:50:24.415Z,8.90
2023-02-21T20:52:52.008Z,8.90
2023-02-21T20:55:22.204Z,8.90
2023-02-21T20:57:49.705Z,9.00
2023-02-21T21:00:18.783Z,8.90
2023-02-21T21:02:46.014Z,8.90
2023-02-21T21:05:16.746Z,9.00
2023-02-21T21:07:45.420Z,9.00
2023-02-21T21:10:15.592Z,9.00
2023-02-21T21:12:43.565Z,9.00
2023-02-21T21:15:13.005Z,9.00
2023-02-21T21:17:40.813Z,9.00
2023-02-21T21:20:10.355Z,9.00
2023-02-21T21:22:37.812Z,9.00
2023-02-21T21:25:08.827Z,9.00
2023-02-21T21:27:37.182Z,9.00
2023-02-21T21:30:07.601Z,8.90
2023-02-21T21:32:34.966Z,8.90
2023-02-21T21:35:07.302Z,8.90
2023-02-21T21:37:35.916Z,8.90
2023-02-21T21:40:15.313Z,8.80
2023-02-21T21:42:48.959Z,8.80
2023-02-21T21:45:19.321Z,8.80
2023-02-21T21:47:48.614Z,8.70
2023-02-21T21:50:18.653Z,8.70
2023-02-21T21:52:52.744Z,8.70
2023-02-21T21:55:25.894Z,8.70
2023-02-21T21:57:54.235Z,8.80
2023-02-21T22:00:24.962Z,8.80
2023-02-21T22:02:58.319Z,8.80
2023-02-21T22:05:30.911Z,8.80
2023-02-21T22:07:59.066Z,8.80
2023-02-21T22:10:27.549Z,8.80
2023-02-21T22:12:56.722Z,8.70
2023-02-21T22:15:28.212Z,8.80
2023-02-21T22:17:56.139Z,8.80
2023-02-21T22:20:35.943Z,8.80
2023-02-21T22:23:08.127Z,8.80
2023-02-21T22:25:37.310Z,8.90
2023-02-21T22:28:09.664Z,8.90
2023-02-21T22:30:40.212Z,8.90
2023-02-21T22:33:13.340Z,8.80
2023-02-21T22:35:41.451Z,8.80
2023-02-21T22:38:14.312Z,8.90
2023-02-21T22:40:42.388Z,8.80
2023-02-21T22:43:10.133Z,8.80
2023-02-21T22:45:38.163Z,8.70
2023-02-21T22:48:08.080Z,8.80
2023-02-21T22:50:39.492Z,8.80
2023-02-21T22:53:08.932Z,8.80
2023-02-21T22:55:37.421Z,8.80
2023-02-21T22:58:08.185Z,8.80
2023-02-21T23:00:37.737Z,8.80
2023-02-21T23:03:13.836Z,8.60
2023-02-21T23:05:45.453Z,8.70
2023-02-21T23:08:15.014Z,8.70
2023-02-21T23:10:42.776Z,8.80
2023-02-21T23:13:18.302Z,8.70
2023-02-21T23:15:46.633Z,8.70
2023-02-21T23:18:20.588Z,8.70
2023-02-21T23:20:56.446Z,8.70
2023-02-21T23:23:28.934Z,8.70
2023-02-21T23:25:58.870Z,8.70
2023-02-21T23:28:31.251Z,8.70
2023-02-21T23:30:58.609Z,8.70
2023-02-21T23:33:29.575Z,8.70
2023-02-21T23:35:57.602Z,8.60
2023-02-21T23:38:28.097Z,8.60
2023-02-21T23:40:57.838Z,8.60
2023-02-21T23:43:35.545Z,8.60
2023-02-21T23:46:09.212Z,8.50
2023-02-21T23:48:37.466Z,8.60
2023-02-21T23:51:07.696Z,8.60
2023-02-21T23:53:34.932Z,8.60
2023-02-21T23:56:02.516Z,8.60
2023-02-21T23:58:34.215Z,8.60
